createdAt,value
2022-08-25T00:02:21.660Z,101165.41
2022-08-25T00:07:44.135Z,101191.41
2022-08-25T00:13:06.185Z,101228.56
2022-08-25T00:18:28.215Z,101217.84
2022-08-25T00:23:50.713Z,101226.72
2022-08-25T00:29:13.143Z,101222.19
2022-08-25T00:34:38.362Z,101220.47
2022-08-25T00:40:00.469Z,101221.88
2022-08-25T00:45:23.707Z,101216.72
2022-08-25T00:50:45.585Z,101177.81
2022-08-25T00:56:08.470Z,101211.06
2022-08-25T01:01:31.004Z,101218.03
2022-08-25T01:06:58.522Z,101217.44
2022-08-25T01:12:21.428Z,101153.19
2022-08-25T01:17:50.235Z,101214.78
2022-08-25T01:23:12.516Z,101226.25
2022-08-25T01:28:37.044Z,101218.41
2022-08-25T01:33:59.974Z,101228.25
2022-08-25T01:39:22.495Z,101215.88
2022-08-25T01:44:46.437Z,101217.47
2022-08-25T01:50:10.954Z,101197.78
2022-08-25T01:55:52.034Z,101226.63
2022-08-25T02:01:20.029Z,101202.19
2022-08-25T02:06:42.315Z,101203.22
2022-08-25T02:12:05.411Z,101225.69
2022-08-25T02:17:28.034Z,101217.19
2022-08-25T02:22:56.566Z,101224.88
2022-08-25T02:28:19.376Z,101205.44
2022-08-25T02:33:41.385Z,101209.78
2022-08-25T02:39:06.374Z,101207.00
2022-08-25T02:44:28.364Z,101226.78
2022-08-25T02:49:50.174Z,101205.22
2022-08-25T02:55:14.676Z,101181.31
2022-08-25T03:00:37.984Z,101226.66
2022-08-25T03:06:00.565Z,101220.75
2022-08-25T03:11:23.055Z,101198.13
2022-08-25T03:16:46.319Z,101223.06
2022-08-25T03:22:08.523Z,101219.22
2022-08-25T03:27:31.396Z,101176.28
2022-08-25T03:32:53.575Z,101203.94
2022-08-25T03:38:16.135Z,101190.00
2022-08-25T03:43:39.353Z,101199.69
2022-08-25T03:49:06.235Z,101182.94
2022-08-25T03:54:27.924Z,101204.53
2022-08-25T03:59:50.124Z,101177.47
2022-08-25T04:05:13.264Z,101149.22
2022-08-25T04:10:38.164Z,101200.31
2022-08-25T04:16:01.104Z,101189.53
2022-08-25T04:21:28.005Z,101182.78
2022-08-25T04:26:52.019Z,101175.78
2022-08-25T04:32:14.596Z,101172.38
2022-08-25T04:37:36.697Z,101147.41
2022-08-25T04:42:58.530Z,101171.94
2022-08-25T04:48:21.600Z,101177.44
2022-08-25T04:53:44.161Z,101152.31
2022-08-25T04:59:09.252Z,101169.34
2022-08-25T05:04:31.741Z,101167.22
2022-08-25T05:09:57.944Z,101115.34
2022-08-25T05:15:49.473Z,101108.34
2022-08-25T05:21:19.238Z,101144.91
2022-08-25T05:26:41.562Z,101136.38
2022-08-25T05:32:04.297Z,101138.94
2022-08-25T05:37:26.371Z,101124.69
2022-08-25T05:42:48.120Z,101079.88
2022-08-25T05:48:09.961Z,101118.16
2022-08-25T05:53:33.763Z,101136.81
2022-08-25T05:58:56.041Z,101137.69
2022-08-25T06:04:23.080Z,101130.56
2022-08-25T06:09:46.942Z,101141.00
2022-08-25T06:15:09.883Z,101121.16
2022-08-25T06:20:38.582Z,101123.53
2022-08-25T06:26:00.742Z,101134.69
2022-08-25T06:31:25.804Z,101088.00
2022-08-25T06:36:48.986Z,101108.56
2022-08-25T06:42:11.702Z,101098.84
2022-08-25T06:47:34.905Z,101074.78
2022-08-25T06:52:57.582Z,101096.47
2022-08-25T06:58:19.766Z,101108.50
2022-08-25T07:03:42.901Z,101134.44
2022-08-25T07:09:12.411Z,101098.72
2022-08-25T07:14:35.902Z,101086.03
2022-08-25T07:19:59.122Z,101079.00
2022-08-25T07:25:21.790Z,101093.03
2022-08-25T07:30:44.102Z,101119.69
2022-08-25T07:36:06.544Z,101094.31
2022-08-25T07:41:29.321Z,101088.75
2022-08-25T07:46:52.470Z,101103.94
2022-08-25T07:52:16.682Z,101091.72
2022-08-25T07:57:43.951Z,101096.91
2022-08-25T08:03:08.219Z,101104.88
2022-08-25T08:08:34.584Z,101105.31
2022-08-25T08:13:58.863Z,101099.34
2022-08-25T08:19:23.009Z,101102.53
2022-08-25T08:24:54.685Z,101078.69
2022-08-25T08:30:18.752Z,101080.66
2022-08-25T08:35:43.312Z,101089.03
2022-08-25T08:48:04.476Z,101078.72
2022-08-25T08:53:37.398Z,101085.44
2022-08-25T08:59:06.421Z,101075.50
2022-08-25T09:04:36.492Z,101073.91
2022-08-25T09:09:59.061Z,101049.28
2022-08-25T09:16:01.920Z,101073.50
2022-08-25T09:21:59.626Z,101064.78
2022-08-25T09:27:47.660Z,101033.03
2022-08-25T09:33:16.170Z,101022.72
2022-08-25T09:38:49.350Z,101051.75
2022-08-25T09:44:34.222Z,101012.78
2022-08-25T09:50:05.419Z,101024.34
2022-08-25T09:55:32.778Z,101038.63
2022-08-25T10:01:13.711Z,101033.47
2022-08-25T10:06:48.122Z,101007.28
2022-08-25T10:12:42.572Z,100996.94
2022-08-25T10:18:29.390Z,101014.38
2022-08-25T10:23:56.521Z,100948.53
2022-08-25T10:29:44.420Z,100935.41
2022-08-25T10:36:01.822Z,100926.69
2022-08-25T10:41:48.283Z,100970.63
2022-08-25T10:47:29.902Z,100938.03
2022-08-25T10:53:18.090Z,100936.06
2022-08-25T10:59:06.822Z,100886.44
2022-08-25T11:04:42.964Z,100911.41
2022-08-25T11:10:30.140Z,100934.03
2022-08-25T11:16:17.004Z,100929.22
2022-08-25T11:22:02.240Z,100922.81
2022-08-25T11:27:33.102Z,100919.63
2022-08-25T11:32:56.382Z,100910.88
2022-08-25T11:38:37.298Z,100907.28
2022-08-25T11:44:18.650Z,100896.94
2022-08-25T11:49:52.089Z,100898.16
2022-08-25T11:55:16.169Z,100887.78
2022-08-25T12:00:45.120Z,100885.34
2022-08-25T12:06:27.860Z,100887.78
2022-08-25T12:11:58.803Z,100874.38
2022-08-25T12:17:27.970Z,100865.31
2022-08-25T12:22:58.448Z,100856.94
2022-08-25T12:28:38.102Z,100846.19
2022-08-25T12:34:19.850Z,100851.66
2022-08-25T12:39:52.550Z,100849.75
2022-08-25T12:45:33.657Z,100848.63
2022-08-25T12:51:07.351Z,100829.72
2022-08-25T12:56:39.542Z,100781.81
2022-08-25T13:02:32.780Z,100830.56
2022-08-25T13:08:15.190Z,100827.41
2022-08-25T13:14:05.159Z,100824.25
2022-08-25T13:19:29.134Z,100825.81
2022-08-25T13:30:35.384Z,100830.94
2022-08-25T13:36:17.642Z,100816.63
2022-08-25T13:41:46.659Z,100816.22
2022-08-25T13:47:32.481Z,100812.66
2022-08-25T13:53:06.141Z,100810.72
2022-08-25T13:58:45.277Z,100799.25
2022-08-25T14:04:32.280Z,100791.75
2022-08-25T14:09:59.501Z,100795.72
2022-08-25T14:15:22.045Z,100807.22
2022-08-25T14:20:48.580Z,100798.53
2022-08-25T14:26:12.622Z,100792.22
2022-08-25T14:31:40.106Z,100764.13
2022-08-25T14:37:02.211Z,100780.34
2022-08-25T14:42:25.259Z,100773.63
2022-08-25T14:47:49.743Z,100755.03
2022-08-25T14:53:12.900Z,100761.34
2022-08-25T14:58:35.476Z,100687.63
2022-08-25T15:04:24.686Z,100699.50
2022-08-25T15:09:49.648Z,100750.19
2022-08-25T15:15:14.159Z,100718.41
2022-08-25T15:20:38.231Z,100730.25
2022-08-25T15:26:05.254Z,100742.84
2022-08-25T15:31:30.141Z,100744.72
2022-08-25T15:36:54.829Z,100739.44
2022-08-25T15:42:17.347Z,100711.50
2022-08-25T15:47:40.628Z,100706.56
2022-08-25T15:53:02.870Z,100726.63
2022-08-25T15:58:25.670Z,100744.25
2022-08-25T16:03:48.600Z,100742.44
2022-08-25T16:09:12.841Z,100732.84
2022-08-25T16:14:35.188Z,100744.44
2022-08-25T16:19:57.180Z,100757.25
2022-08-25T16:25:19.680Z,100706.69
2022-08-25T16:30:52.586Z,100735.78
2022-08-25T16:36:21.526Z,100760.72
2022-08-25T16:41:43.812Z,100757.69
2022-08-25T16:47:08.686Z,100766.44
2022-08-25T16:52:51.819Z,100774.81
2022-08-25T16:58:13.900Z,100773.25
2022-08-25T17:03:36.700Z,100764.91
2022-08-25T17:08:58.820Z,100770.91
2022-08-25T17:14:20.680Z,100775.22
2022-08-25T17:19:45.844Z,100755.75
2022-08-25T17:25:09.890Z,100781.41
2022-08-25T17:30:32.902Z,100694.34
2022-08-25T17:35:57.430Z,100743.56
2022-08-25T17:41:20.981Z,100675.13
2022-08-25T17:46:47.363Z,100716.69
2022-08-25T17:52:09.940Z,100753.91
2022-08-25T17:57:32.459Z,100695.06
2022-08-25T18:02:54.879Z,100713.84
2022-08-25T18:08:18.692Z,100692.56
2022-08-25T18:13:43.082Z,100741.47
2022-08-25T18:19:06.555Z,100741.50
2022-08-25T18:24:32.283Z,100724.81
2022-08-25T18:29:54.382Z,100734.47
2022-08-25T18:35:21.434Z,100737.44
2022-08-25T18:40:45.331Z,100718.97
2022-08-25T18:46:08.429Z,100727.63
2022-08-25T18:51:33.214Z,100717.38
2022-08-25T18:56:55.502Z,100724.88
2022-08-25T19:02:20.535Z,100709.59
2022-08-25T19:07:51.686Z,100694.03
2022-08-25T19:13:15.002Z,100729.66
2022-08-25T19:18:37.822Z,100723.72
2022-08-25T19:24:26.069Z,100768.94
2022-08-25T19:29:48.962Z,100765.47
2022-08-25T19:35:21.519Z,100668.59
2022-08-25T19:41:15.840Z,100763.25
2022-08-25T19:46:46.569Z,100661.84
2022-08-25T19:52:15.080Z,100672.38
2022-08-25T20:21:30.914Z,100669.69
2022-08-25T20:27:02.154Z,100721.72
2022-08-25T20:32:35.630Z,100703.41
2022-08-25T20:38:04.910Z,100712.53
2022-08-25T20:50:29.863Z,100759.66
2022-08-25T20:55:57.841Z,100734.25
2022-08-25T21:49:16.010Z,100664.03
2022-08-25T21:54:53.610Z,100679.75
2022-08-25T22:06:22.199Z,100658.13
2022-08-25T22:18:03.389Z,100652.66
2022-08-25T22:23:28.427Z,100691.59
2022-08-25T22:28:50.441Z,100750.31
2022-08-25T22:34:12.319Z,100751.72
2022-08-25T22:39:34.670Z,100760.88
2022-08-25T22:44:56.610Z,100760.19
2022-08-25T22:50:20.149Z,100762.44
2022-08-25T22:55:44.850Z,100763.03
2022-08-25T23:01:17.111Z,100770.28
2022-08-25T23:06:40.348Z,100767.53
2022-08-25T23:12:02.429Z,100767.66
2022-08-25T23:17:24.679Z,100769.56
2022-08-25T23:22:46.480Z,100759.03
2022-08-25T23:28:11.930Z,100735.72
2022-08-25T23:33:34.290Z,100774.41
2022-08-25T23:38:56.489Z,100754.34
2022-08-25T23:44:19.812Z,100686.59
2022-08-25T23:49:42.211Z,100686.38
2022-08-25T23:55:05.114Z,100752.56
